createdAt,value
2023-01-26T00:02:15.834Z,23.40
2023-01-26T00:04:44.278Z,24.13
2023-01-26T00:07:12.638Z,24.53
2023-01-26T00:09:41.033Z,23.47
2023-01-26T00:12:09.734Z,25.90
2023-01-26T00:14:50.797Z,25.13
2023-01-26T00:17:26.886Z,22.63
2023-01-26T00:19:56.015Z,24.07
2023-01-26T00:22:24.480Z,25.07
2023-01-26T00:24:52.817Z,23.90
2023-01-26T00:27:21.199Z,24.87
2023-01-26T00:29:49.524Z,24.80
2023-01-26T00:32:17.900Z,25.23
2023-01-26T00:34:48.068Z,24.67
2023-01-26T00:37:16.438Z,25.53
2023-01-26T00:39:44.818Z,27.23
2023-01-26T00:42:13.967Z,25.97
2023-01-26T00:44:42.735Z,26.10
2023-01-26T00:47:11.624Z,27.00
2023-01-26T00:49:39.990Z,25.47
2023-01-26T00:52:09.706Z,27.53
2023-01-26T00:54:38.059Z,26.47
2023-01-26T00:57:06.398Z,27.67
2023-01-26T00:59:34.868Z,28.03
2023-01-26T01:02:03.269Z,27.03
2023-01-26T01:04:31.773Z,26.97
2023-01-26T01:07:00.264Z,26.30
2023-01-26T01:09:30.390Z,25.77
2023-01-26T01:11:58.784Z,27.50
2023-01-26T01:14:27.196Z,26.77
2023-01-26T01:16:55.719Z,26.43
2023-01-26T01:19:24.071Z,26.00
2023-01-26T01:21:52.461Z,26.33
2023-01-26T01:24:20.846Z,26.17
2023-01-26T01:26:50.693Z,27.07
2023-01-26T01:29:19.066Z,27.57
2023-01-26T01:31:47.644Z,28.77
2023-01-26T01:34:16.195Z,28.23
2023-01-26T01:36:44.539Z,27.63
2023-01-26T01:39:12.947Z,27.10
2023-01-26T01:41:42.360Z,29.63
2023-01-26T01:44:18.973Z,28.50
2023-01-26T01:46:51.250Z,28.00
2023-01-26T01:49:20.080Z,26.80
2023-01-26T01:51:49.934Z,29.00
2023-01-26T01:54:19.296Z,28.03
2023-01-26T01:56:48.487Z,28.30
2023-01-26T01:59:20.662Z,29.37
2023-01-26T02:01:49.214Z,28.47
2023-01-26T02:04:17.632Z,29.67
2023-01-26T02:06:48.452Z,29.60
2023-01-26T02:09:30.711Z,28.00
2023-01-26T02:11:59.130Z,30.37
2023-01-26T02:14:28.946Z,29.40
2023-01-26T02:16:57.423Z,29.20
2023-01-26T02:19:27.320Z,29.07
2023-01-26T02:21:55.701Z,28.40
2023-01-26T02:24:24.542Z,28.83
2023-01-26T02:26:54.666Z,28.80
2023-01-26T02:29:23.117Z,28.33
2023-01-26T02:31:53.546Z,28.90
2023-01-26T02:34:22.035Z,29.67
2023-01-26T02:36:57.936Z,28.00
2023-01-26T02:39:29.334Z,28.77
2023-01-26T02:42:16.362Z,27.67
2023-01-26T02:44:44.870Z,27.37
2023-01-26T02:47:14.005Z,28.70
2023-01-26T02:49:47.311Z,28.17
2023-01-26T02:52:15.772Z,28.27
2023-01-26T02:55:01.885Z,28.50
2023-01-26T02:57:32.093Z,28.43
2023-01-26T03:00:00.499Z,27.20
2023-01-26T03:02:28.990Z,29.73
2023-01-26T03:04:57.319Z,27.53
2023-01-26T03:07:25.813Z,26.60
2023-01-26T03:09:54.439Z,27.93
2023-01-26T03:12:22.877Z,29.30
2023-01-26T03:15:16.448Z,27.20
2023-01-26T03:17:44.903Z,26.03
2023-01-26T03:20:30.738Z,26.70
2023-01-26T03:23:16.929Z,27.17
2023-01-26T03:26:03.035Z,25.23
2023-01-26T03:28:31.562Z,26.23
2023-01-26T03:31:01.357Z,26.87
2023-01-26T03:33:29.878Z,25.33
2023-01-26T03:35:58.243Z,26.23
2023-01-26T03:38:26.705Z,26.97
2023-01-26T03:41:16.730Z,25.67
2023-01-26T03:44:02.548Z,25.80
2023-01-26T03:46:49.737Z,26.23
2023-01-26T03:49:35.817Z,25.03
2023-01-26T03:52:22.152Z,26.33
2023-01-26T03:55:08.298Z,26.10
2023-01-26T03:57:36.712Z,26.63
2023-01-26T04:00:06.238Z,25.13
2023-01-26T04:02:53.561Z,25.53
2023-01-26T04:05:39.406Z,25.60
2023-01-26T04:08:24.051Z,25.50
2023-01-26T04:10:52.680Z,24.40
2023-01-26T04:13:38.825Z,24.47
2023-01-26T04:16:25.117Z,26.07
2023-01-26T04:19:12.785Z,25.17
2023-01-26T04:21:41.175Z,25.70
2023-01-26T04:24:16.779Z,25.80
2023-01-26T04:26:45.605Z,26.03
2023-01-26T04:29:14.420Z,26.33
2023-01-26T04:31:43.132Z,26.07
2023-01-26T04:34:13.854Z,26.37
2023-01-26T04:36:42.278Z,26.23
2023-01-26T04:39:10.667Z,26.00
2023-01-26T04:41:41.300Z,25.83
2023-01-26T04:44:10.597Z,27.17
2023-01-26T04:46:39.025Z,28.07
2023-01-26T04:49:07.536Z,27.47
2023-01-26T04:51:37.364Z,28.13
2023-01-26T04:54:06.233Z,26.63
2023-01-26T04:56:35.169Z,26.83
2023-01-26T04:59:04.033Z,26.50
2023-01-26T05:01:32.407Z,27.20
2023-01-26T05:04:01.086Z,26.73
2023-01-26T05:06:29.494Z,26.13
2023-01-26T05:08:59.337Z,27.30
2023-01-26T05:11:27.912Z,25.30
2023-01-26T05:13:56.274Z,25.80
2023-01-26T05:16:24.910Z,24.20
2023-01-26T05:18:53.322Z,25.53
2023-01-26T05:21:24.605Z,26.13
2023-01-26T05:23:53.135Z,25.17
2023-01-26T05:26:22.939Z,23.90
2023-01-26T05:28:51.346Z,23.40
2023-01-26T05:31:19.688Z,24.60
2023-01-26T05:33:48.100Z,24.17
2023-01-26T05:36:16.576Z,22.93
2023-01-26T05:38:44.879Z,23.47
2023-01-26T05:41:13.362Z,22.20
2023-01-26T05:43:43.184Z,21.63
2023-01-26T05:46:11.618Z,21.40
2023-01-26T05:48:40.119Z,20.77
2023-01-26T05:51:08.691Z,21.10
2023-01-26T05:53:37.236Z,20.37
2023-01-26T05:56:05.793Z,18.53
2023-01-26T05:58:34.161Z,18.83
2023-01-26T06:01:06.971Z,17.80
2023-01-26T06:03:35.382Z,16.90
2023-01-26T06:06:03.799Z,16.20
2023-01-26T06:08:32.309Z,16.87
2023-01-26T06:11:01.415Z,14.80
2023-01-26T06:13:29.881Z,15.03
2023-01-26T06:15:58.223Z,14.40
2023-01-26T06:18:27.893Z,14.03
2023-01-26T06:20:56.361Z,13.43
2023-01-26T06:23:24.798Z,13.50
2023-01-26T06:25:53.238Z,12.80
2023-01-26T06:28:21.650Z,11.93
2023-01-26T06:30:50.153Z,10.43
2023-01-26T06:33:18.777Z,9.17
2023-01-26T06:35:48.556Z,9.73
2023-01-26T06:38:16.981Z,7.63
2023-01-26T06:40:45.385Z,7.67
2023-01-26T06:43:16.860Z,8.20
2023-01-26T06:45:47.081Z,7.60
2023-01-26T06:48:15.642Z,6.00
2023-01-26T06:50:44.274Z,5.90
2023-01-26T06:53:26.856Z,5.03
2023-01-26T06:55:55.233Z,7.03
2023-01-26T06:58:23.602Z,7.80
2023-01-26T07:00:52.039Z,5.33
2023-01-26T07:03:20.741Z,6.73
2023-01-26T07:05:49.157Z,6.00
2023-01-26T07:08:17.645Z,5.77
2023-01-26T07:10:50.393Z,6.57
2023-01-26T07:13:18.817Z,5.57
2023-01-26T07:15:47.366Z,6.60
2023-01-26T07:18:15.711Z,6.30
2023-01-26T07:20:44.105Z,6.70
2023-01-26T07:23:12.432Z,6.20
2023-01-26T07:25:40.939Z,6.10
2023-01-26T07:28:11.269Z,6.07
2023-01-26T07:30:39.858Z,4.80
2023-01-26T07:33:11.361Z,4.83
2023-01-26T07:35:39.803Z,4.83
2023-01-26T07:38:08.307Z,5.30
2023-01-26T07:40:42.505Z,6.07
2023-01-26T07:43:15.549Z,5.17
2023-01-26T07:45:46.686Z,4.93
2023-01-26T07:48:15.768Z,4.57
2023-01-26T07:50:45.299Z,4.27
2023-01-26T07:53:15.351Z,5.67
2023-01-26T07:55:46.895Z,5.47
2023-01-26T07:58:18.102Z,5.30
2023-01-26T08:00:47.898Z,5.30
2023-01-26T08:03:16.315Z,5.23
2023-01-26T08:05:44.683Z,5.37
2023-01-26T08:08:13.804Z,5.10
2023-01-26T08:10:42.334Z,4.47
2023-01-26T08:13:10.774Z,4.70
2023-01-26T08:15:40.729Z,6.40
2023-01-26T08:18:09.099Z,5.07
2023-01-26T08:20:37.624Z,6.30
2023-01-26T08:23:06.132Z,4.83
2023-01-26T08:25:34.514Z,4.90
2023-01-26T08:28:03.504Z,4.57
2023-01-26T08:30:31.886Z,4.13
2023-01-26T08:33:02.343Z,5.60
2023-01-26T08:35:33.795Z,5.33
2023-01-26T08:38:02.189Z,5.00
2023-01-26T08:40:30.603Z,4.97
2023-01-26T08:43:01.584Z,6.30
2023-01-26T08:45:32.114Z,5.33
2023-01-26T08:48:01.879Z,5.03
2023-01-26T08:50:32.795Z,5.07
2023-01-26T08:53:05.857Z,5.43
2023-01-26T08:55:34.315Z,5.53
2023-01-26T08:58:05.790Z,4.67
2023-01-26T09:00:34.236Z,5.53
2023-01-26T09:03:04.317Z,4.73
2023-01-26T09:05:33.672Z,5.23
2023-01-26T09:08:02.030Z,5.33
2023-01-26T09:10:33.624Z,4.90
2023-01-26T09:13:02.120Z,4.97
2023-01-26T09:15:30.476Z,5.00
2023-01-26T09:18:00.840Z,4.47
2023-01-26T09:20:34.192Z,5.37
2023-01-26T09:23:02.630Z,5.33
2023-01-26T09:25:30.954Z,5.93
2023-01-26T09:28:05.473Z,5.60
2023-01-26T09:30:34.091Z,4.50
2023-01-26T09:33:03.822Z,5.07
2023-01-26T09:35:36.873Z,4.40
2023-01-26T09:38:05.309Z,4.77
2023-01-26T09:40:37.907Z,4.43
2023-01-26T09:43:12.823Z,5.00
2023-01-26T09:45:46.310Z,5.27
2023-01-26T09:48:19.010Z,4.77
2023-01-26T09:50:53.503Z,5.50
2023-01-26T09:53:22.376Z,5.57
2023-01-26T09:55:50.778Z,5.13
2023-01-26T09:58:25.588Z,4.90
2023-01-26T10:00:57.240Z,5.03
2023-01-26T10:03:27.089Z,4.63
2023-01-26T10:05:59.141Z,5.70
2023-01-26T10:08:33.771Z,4.20
2023-01-26T10:11:06.316Z,4.70
2023-01-26T10:13:34.734Z,4.57
2023-01-26T10:16:03.789Z,4.70
2023-01-26T10:18:32.535Z,4.90
2023-01-26T10:21:05.875Z,4.50
2023-01-26T10:23:34.558Z,5.10
2023-01-26T10:26:04.541Z,4.83
2023-01-26T10:28:33.317Z,4.83
2023-01-26T10:31:01.852Z,4.67
2023-01-26T10:33:33.995Z,5.20
2023-01-26T10:36:02.773Z,4.17
2023-01-26T10:38:42.300Z,4.77
2023-01-26T10:41:22.328Z,3.63
2023-01-26T10:43:52.195Z,4.43
2023-01-26T10:46:27.467Z,4.67
2023-01-26T10:48:56.196Z,4.47
2023-01-26T10:51:27.138Z,4.20
2023-01-26T10:54:14.414Z,4.10
2023-01-26T10:56:46.934Z,3.07
2023-01-26T10:59:15.997Z,4.03
2023-01-26T11:01:54.222Z,3.77
2023-01-26T11:04:22.717Z,5.13
2023-01-26T11:06:51.669Z,3.57
2023-01-26T11:09:20.662Z,3.83
2023-01-26T11:12:00.688Z,4.10
2023-01-26T11:14:29.492Z,3.73
2023-01-26T11:17:02.114Z,3.10
2023-01-26T11:19:35.116Z,3.77
2023-01-26T11:22:04.671Z,3.30
2023-01-26T11:24:34.615Z,3.33
2023-01-26T11:27:17.118Z,4.83
2023-01-26T11:29:58.128Z,4.30
2023-01-26T11:32:28.115Z,3.33
2023-01-26T11:35:00.449Z,3.77
2023-01-26T11:37:43.803Z,4.50
2023-01-26T11:40:16.465Z,3.00
2023-01-26T11:42:47.225Z,3.07
2023-01-26T11:45:19.965Z,3.47
2023-01-26T11:47:52.139Z,4.13
2023-01-26T11:50:23.664Z,3.97
2023-01-26T11:52:54.958Z,3.67
2023-01-26T11:55:26.977Z,4.27
2023-01-26T11:58:01.937Z,4.83
2023-01-26T12:00:32.946Z,2.57
2023-01-26T12:03:02.821Z,3.30
2023-01-26T12:05:32.004Z,3.70
2023-01-26T12:08:01.718Z,3.50
2023-01-26T12:10:31.150Z,3.63
2023-01-26T12:13:03.091Z,2.90
2023-01-26T12:15:33.305Z,2.90
2023-01-26T12:18:15.504Z,3.10
2023-01-26T12:20:45.598Z,2.97
2023-01-26T12:23:18.283Z,3.57
2023-01-26T12:25:47.282Z,3.83
2023-01-26T12:28:19.063Z,3.27
2023-01-26T12:30:52.063Z,3.47
2023-01-26T12:33:23.280Z,3.77
2023-01-26T12:36:12.823Z,3.97
2023-01-26T12:38:45.627Z,3.70
2023-01-26T12:41:16.444Z,4.20
2023-01-26T12:43:49.473Z,3.40
2023-01-26T12:46:18.060Z,4.03
2023-01-26T12:48:47.723Z,3.40
2023-01-26T12:51:17.744Z,3.57
2023-01-26T12:53:47.985Z,3.40
2023-01-26T12:56:17.281Z,2.50
2023-01-26T12:58:47.019Z,3.67
2023-01-26T13:01:17.780Z,2.80
2023-01-26T13:03:46.756Z,2.70
2023-01-26T13:06:21.952Z,3.70
2023-01-26T13:08:53.901Z,2.77
2023-01-26T13:11:48.462Z,3.60
2023-01-26T13:14:32.985Z,3.67
2023-01-26T13:17:17.341Z,3.27
2023-01-26T13:19:54.383Z,3.10
2023-01-26T13:22:41.777Z,3.37
2023-01-26T13:25:18.428Z,3.10
2023-01-26T13:27:47.226Z,3.10
2023-01-26T13:30:39.500Z,3.03
2023-01-26T13:33:11.546Z,3.60
2023-01-26T13:35:41.601Z,2.50
2023-01-26T13:38:13.104Z,2.70
2023-01-26T13:40:42.392Z,2.43
2023-01-26T13:43:25.913Z,3.33
2023-01-26T13:46:00.760Z,2.60
2023-01-26T13:48:34.986Z,2.93
2023-01-26T13:51:05.123Z,3.50
2023-01-26T13:53:35.961Z,2.97
2023-01-26T13:56:04.837Z,2.83
2023-01-26T13:58:33.935Z,2.83
2023-01-26T14:01:02.805Z,3.23
2023-01-26T14:03:31.354Z,2.30
2023-01-26T14:06:00.947Z,2.40
2023-01-26T14:08:31.077Z,2.83
2023-01-26T14:10:59.638Z,2.87
2023-01-26T14:13:31.595Z,3.33
2023-01-26T14:16:00.816Z,2.60
2023-01-26T14:18:32.416Z,2.90
2023-01-26T14:21:01.310Z,2.57
2023-01-26T14:23:33.826Z,2.13
2023-01-26T14:26:02.975Z,2.60
2023-01-26T14:28:32.297Z,2.20
2023-01-26T14:31:05.728Z,2.77
2023-01-26T14:33:36.019Z,2.30
2023-01-26T14:36:05.011Z,2.50
2023-01-26T14:38:43.693Z,2.30
2023-01-26T14:41:13.107Z,2.50
2023-01-26T14:43:42.514Z,3.17
2023-01-26T14:46:11.611Z,2.20
2023-01-26T14:48:40.891Z,2.67
2023-01-26T14:51:09.529Z,2.80
2023-01-26T14:53:39.252Z,2.50
2023-01-26T14:56:07.776Z,3.27
2023-01-26T14:58:36.320Z,2.90
2023-01-26T15:01:04.989Z,2.20
2023-01-26T15:03:37.375Z,3.00
2023-01-26T15:06:16.955Z,2.60
2023-01-26T15:08:55.142Z,2.33
2023-01-26T15:11:46.213Z,2.27
2023-01-26T15:14:35.291Z,2.53
2023-01-26T15:17:03.655Z,2.43
2023-01-26T15:19:40.659Z,2.43
2023-01-26T15:22:18.688Z,2.13
2023-01-26T15:24:48.746Z,2.47
2023-01-26T15:27:17.263Z,2.77
2023-01-26T15:29:45.684Z,3.57
2023-01-26T15:32:28.055Z,2.37
2023-01-26T15:35:04.930Z,3.37
2023-01-26T15:37:39.583Z,2.00
2023-01-26T15:40:10.850Z,1.90
2023-01-26T15:42:47.490Z,2.33
2023-01-26T15:45:19.501Z,2.10
2023-01-26T15:47:48.145Z,2.37
2023-01-26T15:50:27.458Z,2.30
2023-01-26T15:52:56.611Z,2.83
2023-01-26T15:55:29.361Z,2.00
2023-01-26T15:57:57.961Z,2.17
2023-01-26T16:00:26.655Z,2.40
2023-01-26T16:02:55.127Z,1.70
2023-01-26T16:05:24.025Z,1.50
2023-01-26T16:07:52.786Z,2.17
2023-01-26T16:10:21.385Z,1.93
2023-01-26T16:12:54.318Z,1.50
2023-01-26T16:15:25.367Z,2.37
2023-01-26T16:17:53.767Z,2.20
2023-01-26T16:20:28.552Z,2.20
2023-01-26T16:22:57.089Z,2.00
2023-01-26T16:25:26.248Z,2.50
2023-01-26T16:27:56.206Z,2.47
2023-01-26T16:30:24.856Z,2.67
2023-01-26T16:32:54.155Z,3.00
2023-01-26T16:35:23.562Z,2.30
2023-01-26T16:37:55.070Z,2.40
2023-01-26T16:40:27.192Z,2.80
2023-01-26T16:42:57.395Z,3.27
2023-01-26T16:45:27.514Z,2.60
2023-01-26T16:47:56.830Z,2.60
2023-01-26T16:50:25.518Z,2.77
2023-01-26T16:52:58.818Z,2.53
2023-01-26T16:55:27.347Z,3.00
2023-01-26T16:57:57.447Z,2.83
2023-01-26T17:00:26.138Z,2.80
2023-01-26T17:02:55.084Z,3.47
2023-01-26T17:05:34.294Z,3.00
2023-01-26T17:08:03.028Z,3.07
2023-01-26T17:10:31.835Z,3.10
2023-01-26T17:13:03.027Z,3.47
2023-01-26T17:15:31.653Z,2.70
2023-01-26T17:18:00.250Z,3.37
2023-01-26T17:20:29.307Z,2.20
2023-01-26T17:22:57.981Z,3.53
2023-01-26T17:25:29.560Z,2.87
2023-01-26T17:28:06.584Z,3.27
2023-01-26T17:30:36.980Z,2.63
2023-01-26T17:33:05.699Z,3.13
2023-01-26T17:35:34.309Z,2.87
2023-01-26T17:38:11.828Z,2.70
2023-01-26T17:40:40.798Z,3.00
2023-01-26T17:43:09.279Z,3.27
2023-01-26T17:45:39.295Z,3.03
2023-01-26T17:48:08.229Z,2.60
2023-01-26T17:50:39.601Z,3.03
2023-01-26T17:53:08.075Z,3.33
2023-01-26T17:55:37.567Z,2.63
2023-01-26T17:58:10.988Z,3.90
2023-01-26T18:00:43.842Z,3.20
2023-01-26T18:03:14.862Z,3.40
2023-01-26T18:05:52.041Z,2.47
2023-01-26T18:08:23.706Z,2.37
2023-01-26T18:10:52.100Z,2.80
2023-01-26T18:13:21.256Z,2.50
2023-01-26T18:15:52.327Z,3.07
2023-01-26T18:18:20.821Z,2.77
2023-01-26T18:20:49.205Z,2.80
2023-01-26T18:23:17.719Z,2.40
2023-01-26T18:25:46.275Z,3.30
2023-01-26T18:28:14.793Z,2.33
2023-01-26T18:30:43.236Z,2.10
2023-01-26T18:33:13.088Z,2.30
2023-01-26T18:35:41.580Z,2.50
2023-01-26T18:38:10.206Z,1.93
2023-01-26T18:40:43.350Z,2.63
2023-01-26T18:43:11.906Z,2.60
2023-01-26T18:45:43.001Z,2.57
2023-01-26T18:48:12.785Z,2.43
2023-01-26T18:50:41.292Z,3.00
2023-01-26T18:53:09.917Z,2.40
2023-01-26T18:55:38.573Z,2.17
2023-01-26T18:58:08.106Z,2.33
2023-01-26T19:00:36.753Z,3.43
2023-01-26T19:03:05.357Z,2.43
2023-01-26T19:05:35.248Z,2.33
2023-01-26T19:08:10.421Z,2.07
2023-01-26T19:10:39.724Z,2.30
2023-01-26T19:13:08.330Z,2.70
2023-01-26T19:15:37.012Z,2.23
2023-01-26T19:18:05.956Z,1.97
2023-01-26T19:20:37.153Z,2.50
2023-01-26T19:23:06.246Z,3.27
2023-01-26T19:25:37.136Z,2.90
2023-01-26T19:28:08.266Z,2.50
2023-01-26T19:30:37.140Z,2.70
2023-01-26T19:33:28.459Z,2.43
2023-01-26T19:35:58.588Z,2.83
2023-01-26T19:38:27.319Z,3.07
2023-01-26T19:40:56.423Z,3.17
2023-01-26T19:43:25.122Z,2.60
2023-01-26T19:45:54.111Z,3.33
2023-01-26T19:48:22.773Z,3.33
2023-01-26T19:51:05.892Z,2.83
2023-01-26T19:53:34.493Z,4.00
2023-01-26T19:56:06.955Z,3.47
2023-01-26T19:58:36.326Z,3.27
2023-01-26T20:01:05.755Z,3.53
2023-01-26T20:03:34.622Z,2.90
2023-01-26T20:06:03.421Z,3.07
2023-01-26T20:08:33.356Z,3.07
2023-01-26T20:11:05.772Z,3.80
2023-01-26T20:13:34.317Z,2.63
2023-01-26T20:16:02.878Z,3.50
2023-01-26T20:18:31.438Z,3.57
2023-01-26T20:21:01.061Z,2.70
2023-01-26T20:23:31.777Z,3.03
2023-01-26T20:26:05.099Z,3.50
2023-01-26T20:28:33.660Z,2.83
2023-01-26T20:31:07.712Z,2.93
2023-01-26T20:33:39.307Z,3.40
2023-01-26T20:36:08.526Z,3.20
2023-01-26T20:38:37.089Z,3.10
2023-01-26T20:41:09.640Z,3.17
2023-01-26T20:43:39.670Z,3.63
2023-01-26T20:46:10.479Z,3.97
2023-01-26T20:48:38.980Z,3.17
2023-01-26T20:51:11.062Z,3.37
2023-01-26T20:53:40.127Z,2.90
2023-01-26T20:56:11.789Z,3.10
2023-01-26T20:58:40.556Z,3.87
2023-01-26T21:01:09.350Z,3.90
2023-01-26T21:03:38.103Z,3.97
2023-01-26T21:06:07.199Z,3.80
2023-01-26T21:08:36.759Z,3.87
2023-01-26T21:11:12.525Z,3.30
2023-01-26T21:13:42.445Z,4.03
2023-01-26T21:16:11.187Z,3.53
2023-01-26T21:18:39.755Z,3.73
2023-01-26T21:21:11.325Z,4.00
2023-01-26T21:23:39.940Z,3.60
2023-01-26T21:26:14.483Z,3.50
2023-01-26T21:28:43.153Z,4.60
2023-01-26T21:31:18.651Z,3.97
2023-01-26T21:33:47.733Z,4.60
2023-01-26T21:36:16.753Z,3.70
2023-01-26T21:38:45.688Z,3.67
2023-01-26T21:41:33.374Z,3.30
2023-01-26T21:44:02.183Z,4.10
2023-01-26T21:46:30.949Z,4.33
2023-01-26T21:48:59.388Z,3.40
2023-01-26T21:51:56.921Z,4.07
2023-01-26T21:54:25.359Z,4.40
2023-01-26T21:56:55.212Z,4.20
2023-01-26T21:59:23.180Z,3.50
2023-01-26T22:01:52.448Z,3.33
2023-01-26T22:04:21.469Z,3.20
2023-01-26T22:06:49.915Z,3.33
2023-01-26T22:09:18.805Z,3.67
2023-01-26T22:11:50.959Z,3.53
2023-01-26T22:14:21.629Z,3.73
2023-01-26T22:16:50.575Z,3.83
2023-01-26T22:19:19.017Z,4.87
2023-01-26T22:21:47.905Z,4.07
2023-01-26T22:24:18.078Z,3.97
2023-01-26T22:26:47.110Z,3.87
2023-01-26T22:29:17.975Z,3.10
2023-01-26T22:31:47.824Z,4.13
2023-01-26T22:34:16.637Z,3.83
2023-01-26T22:36:45.336Z,4.60
2023-01-26T22:39:14.017Z,3.70
2023-01-26T22:41:44.326Z,4.60
2023-01-26T22:44:12.728Z,3.40
2023-01-26T22:46:41.209Z,3.77
2023-01-26T22:49:11.577Z,4.40
2023-01-26T22:51:41.223Z,3.50
2023-01-26T22:54:09.711Z,4.03
2023-01-26T22:56:38.279Z,4.20
2023-01-26T22:59:06.724Z,3.40
2023-01-26T23:01:35.251Z,5.10
2023-01-26T23:04:03.792Z,3.83
2023-01-26T23:06:33.634Z,3.17
2023-01-26T23:09:04.785Z,4.00
2023-01-26T23:11:33.685Z,3.83
2023-01-26T23:14:02.135Z,3.77
2023-01-26T23:16:30.715Z,5.40
2023-01-26T23:18:59.809Z,3.67
2023-01-26T23:21:28.648Z,3.93
2023-01-26T23:23:58.885Z,4.37
2023-01-26T23:26:27.596Z,4.20
2023-01-26T23:28:55.966Z,4.03
2023-01-26T23:31:24.424Z,3.83
2023-01-26T23:33:52.975Z,3.77
2023-01-26T23:36:21.747Z,4.37
2023-01-26T23:38:50.319Z,3.60
2023-01-26T23:41:20.076Z,4.27
2023-01-26T23:43:48.733Z,4.23
2023-01-26T23:46:17.437Z,3.73
2023-01-26T23:48:45.898Z,3.83
2023-01-26T23:51:17.657Z,3.57
2023-01-26T23:53:46.100Z,4.40
2023-01-26T23:56:15.769Z,3.87
2023-01-26T23:58:45.879Z,3.97
